Terminal Aerodrome Forecast
Issued by NWS Omaha/Valley, NE

Home | Current Version | Previous Version | Text Only | Print | Product List | Glossary On
Versions: 1 2 3 4 5 6 7 8 9 10 11 12 13 14 15 16
000
FTUS43 KOAX 171341 AAA
TAFOMA
TAF AMD
KOMA 171341Z 1714/1812 36007KT P6SM OVC150
      TEMPO 1714/1716 5SM -RAPL OVC045
     FM171700 35006KT P6SM BKN030
     FM171900 35007KT P6SM SCT060
     FM180000 VRB03KT P6SM BKN150=

USA.gov is the U.S. government's official web portal to all federal, state and local government web resources and services.